Time;durP1;ratioP1;P1;durP2;ratioP2;P2;SDS_P1;SDS_P2;PMS_P1;PMS_P2;Temp;Humidity;BMP_temperature;BMP_pressure;BME280_temperature;BME280_humidity;BME280_pressure;Samples;Min_cycle;Max_cycle;Signal;HPM_P1;HPM_P2
2023/01/08 00:01:33;;;;;;;2.60;1.90;;;7.50;99.90;;;;;;5053018;28;20057;-56
2023/01/08 00:03:58;;;;;;;2.55;2.15;;;7.50;99.90;;;;;;5053951;28;20059;-58
2023/01/08 00:06:24;;;;;;;3.20;2.13;;;7.50;99.90;;;;;;5050732;28;20029;-57
2023/01/08 00:08:50;;;;;;;2.28;2.03;;;7.50;99.90;;;;;;5057290;28;20709;-55
2023/01/08 00:11:15;;;;;;;3.05;2.28;;;7.40;99.90;;;;;;5041890;28;20026;-53
2023/01/08 00:13:41;;;;;;;2.22;1.90;;;7.50;99.90;;;;;;5056890;28;20532;-56
2023/01/08 00:16:09;;;;;;;3.67;2.17;;;7.50;99.90;;;;;;5047444;28;20031;-57
2023/01/08 00:18:35;;;;;;;3.05;2.47;;;7.40;99.90;;;;;;5036150;28;20040;-57
2023/01/08 00:21:01;;;;;;;2.70;2.30;;;7.50;99.90;;;;;;5037389;28;20020;-57
2023/01/08 00:23:27;;;;;;;2.53;2.10;;;7.50;99.90;;;;;;5051357;28;20172;-57
2023/01/08 00:25:52;;;;;;;3.10;2.55;;;7.50;99.90;;;;;;5055066;28;20383;-57
2023/01/08 00:28:19;;;;;;;3.95;2.20;;;7.50;99.90;;;;;;5036603;28;20424;-57
2023/01/08 00:30:46;;;;;;;3.20;2.25;;;7.50;99.90;;;;;;5054469;28;20025;-54
2023/01/08 00:33:12;;;;;;;2.53;2.08;;;7.50;99.90;;;;;;5054402;28;20570;-54
2023/01/08 00:35:39;;;;;;;4.20;2.53;;;7.50;99.90;;;;;;5053913;28;20036;-58
2023/01/08 00:38:05;;;;;;;2.42;2.22;;;7.50;99.90;;;;;;5054104;28;20036;-58
2023/01/08 00:40:32;;;;;;;4.78;2.33;;;7.50;99.90;;;;;;5049424;28;20126;-57
2023/01/08 00:42:57;;;;;;;2.92;2.47;;;7.60;99.90;;;;;;5039244;28;20162;-55
2023/01/08 00:45:23;;;;;;;3.13;2.22;;;7.60;99.90;;;;;;5052900;28;20092;-58
2023/01/08 00:47:48;;;;;;;2.58;2.25;;;7.60;99.90;;;;;;5057215;28;20109;-58
2023/01/08 00:50:16;;;;;;;2.28;1.75;;;7.60;99.90;;;;;;5053409;28;20086;-53
2023/01/08 00:52:41;;;;;;;3.15;2.80;;;7.60;99.90;;;;;;5054622;28;20028;-58
2023/01/08 00:55:07;;;;;;;5.03;3.90;;;7.60;99.90;;;;;;5051082;28;20036;-58
2023/01/08 00:57:34;;;;;;;4.85;4.20;;;7.70;99.90;;;;;;5049838;28;20016;-58
2023/01/08 00:59:59;;;;;;;6.32;5.72;;;7.70;99.90;;;;;;5048318;28;20987;-56
2023/01/08 01:02:26;;;;;;;9.70;7.80;;;7.70;99.90;;;;;;5029670;28;20040;-58
2023/01/08 01:04:52;;;;;;;9.43;8.02;;;7.60;99.90;;;;;;5049163;28;20108;-54
2023/01/08 01:07:18;;;;;;;9.85;8.07;;;7.70;99.90;;;;;;5047267;28;20024;-54
2023/01/08 01:09:43;;;;;;;7.85;5.95;;;7.70;99.90;;;;;;5049343;28;20024;-56
2023/01/08 01:12:09;;;;;;;7.10;4.38;;;7.70;99.90;;;;;;5049064;28;20039;-56
2023/01/08 01:14:37;;;;;;;3.00;2.78;;;7.70;99.90;;;;;;5049007;28;20052;-58
2023/01/08 01:17:03;;;;;;;2.85;2.55;;;7.80;99.90;;;;;;5049177;28;20028;-59
2023/01/08 01:19:28;;;;;;;4.00;2.38;;;7.80;99.90;;;;;;5046500;28;20409;-58
2023/01/08 01:21:54;;;;;;;2.22;2.03;;;7.80;99.90;;;;;;5049268;28;20029;-55
2023/01/08 01:24:22;;;;;;;2.92;2.47;;;7.80;99.90;;;;;;5030879;28;20055;-58
2023/01/08 01:26:48;;;;;;;3.03;2.45;;;7.80;99.90;;;;;;5049436;28;20017;-54
2023/01/08 01:29:13;;;;;;;2.72;2.42;;;7.80;99.90;;;;;;5031052;28;20024;-57
2023/01/08 01:31:39;;;;;;;2.70;2.30;;;7.80;99.90;;;;;;5049202;28;20544;-55
2023/01/08 01:34:04;;;;;;;2.97;2.33;;;7.80;99.90;;;;;;5049041;28;20489;-56
2023/01/08 01:36:30;;;;;;;2.80;2.50;;;7.80;99.90;;;;;;5049094;28;20028;-56
2023/01/08 01:38:56;;;;;;;2.97;2.10;;;7.80;99.90;;;;;;5047900;28;20025;-57
2023/01/08 01:41:28;;;;;;;2.28;2.08;;;7.80;99.90;;;;;;5049055;28;20025;-57
2023/01/08 01:43:56;;;;;;;2.88;2.35;;;7.90;99.90;;;;;;5047561;28;20033;-58
2023/01/08 01:46:37;;;;;;;3.20;2.70;;;7.90;99.90;;;;;;5048254;28;20021;-58
2023/01/08 01:49:08;;;;;;;5.10;2.20;;;7.90;99.90;;;;;;5041554;28;20040;-56
2023/01/08 01:51:37;;;;;;;2.42;2.20;;;7.90;99.90;;;;;;5048642;28;20492;-56
2023/01/08 01:54:06;;;;;;;3.55;2.53;;;7.90;99.90;;;;;;5048483;28;20032;-56
2023/01/08 01:56:32;;;;;;;3.42;2.67;;;7.90;99.90;;;;;;5048526;28;20033;-56
2023/01/08 01:58:58;;;;;;;3.72;2.13;;;8.00;99.90;;;;;;5045777;28;20112;-56
2023/01/08 02:01:24;;;;;;;2.40;2.20;;;8.00;99.90;;;;;;5042085;28;20029;-56
2023/01/08 02:03:50;;;;;;;2.92;2.15;;;8.00;99.90;;;;;;5045747;28;20037;-54
2023/01/08 02:06:27;;;;;;;2.97;2.47;;;8.00;99.90;;;;;;5050020;28;20033;-58
2023/01/08 02:09:19;;;;;;;2.67;2.05;;;8.10;99.90;;;;;;5051295;28;20119;-55
2023/01/08 02:12:15;;;;;;;3.15;2.40;;;8.10;99.90;;;;;;5052484;28;20036;-56
2023/01/08 02:14:43;;;;;;;3.00;2.65;;;8.10;99.90;;;;;;5052250;28;20020;-59
2023/01/08 02:17:14;;;;;;;3.08;2.78;;;8.10;99.90;;;;;;5052652;28;20024;-56
2023/01/08 02:19:51;;;;;;;3.15;1.80;;;8.10;99.90;;;;;;5052121;28;20072;-57
2023/01/08 02:23:01;;;;;;;2.55;2.25;;;8.20;99.90;;;;;;5050238;28;20025;-56
2023/01/08 02:25:33;;;;;;;2.67;2.47;;;8.30;99.90;;;;;;4969610;28;20097;-59
2023/01/08 02:28:00;;;;;;;2.88;2.47;;;8.20;99.90;;;;;;5039174;28;20041;-58
2023/01/08 02:30:26;;;;;;;2.92;2.50;;;8.20;99.90;;;;;;5052110;28;20025;-57
2023/01/08 02:32:52;;;;;;;4.22;2.67;;;8.20;99.90;;;;;;5052133;28;20017;-56
2023/01/08 02:35:17;;;;;;;4.35;2.45;;;8.20;99.90;;;;;;5051833;28;20497;-58
2023/01/08 02:37:43;;;;;;;2.65;2.20;;;8.20;99.90;;;;;;5052345;28;20517;-57
2023/01/08 02:40:15;;;;;;;3.47;2.70;;;8.30;99.90;;;;;;5051871;28;20029;-56
2023/01/08 02:42:57;;;;;;;3.03;2.08;;;8.20;99.90;;;;;;5046863;28;20500;-55
2023/01/08 02:45:41;;;;;;;6.55;2.65;;;8.20;99.90;;;;;;5033601;28;20025;-57
2023/01/08 02:48:32;;;;;;;3.63;2.50;;;8.20;99.90;;;;;;5051823;28;20025;-57
2023/01/08 02:51:04;;;;;;;3.05;2.50;;;8.20;99.90;;;;;;5046863;28;20033;-57
2023/01/08 02:53:34;;;;;;;2.33;2.08;;;8.10;99.90;;;;;;5052382;28;20029;-57
2023/01/08 02:56:08;;;;;;;3.05;2.10;;;8.20;99.90;;;;;;5051332;28;20025;-57
2023/01/08 02:58:36;;;;;;;2.80;2.60;;;8.20;99.90;;;;;;5051742;28;20029;-55
2023/01/08 03:01:05;;;;;;;2.85;2.50;;;8.10;99.90;;;;;;5051476;28;20531;-58
2023/01/08 03:03:32;;;;;;;2.35;2.00;;;8.20;99.90;;;;;;5051359;28;20021;-57
2023/01/08 03:06:07;;;;;;;3.30;2.83;;;8.10;99.90;;;;;;5051385;28;20028;-55
2023/01/08 03:08:37;;;;;;;2.83;2.38;;;8.20;99.90;;;;;;5051476;28;20025;-58
2023/01/08 03:11:04;;;;;;;2.58;2.38;;;8.20;99.90;;;;;;5051098;28;20024;-56
2023/01/08 03:13:44;;;;;;;2.33;2.13;;;8.20;99.90;;;;;;5049691;28;20025;-58
2023/01/08 03:16:24;;;;;;;2.78;2.40;;;8.20;99.90;;;;;;5051135;28;20121;-58
2023/01/08 03:21:21;;;;;;;4.82;2.65;;;8.10;99.90;;;;;;5029840;28;20060;-54
2023/01/08 03:23:49;;;;;;;5.60;2.45;;;8.10;99.90;;;;;;5030683;28;20041;-54
2023/01/08 03:26:19;;;;;;;6.70;2.58;;;8.10;99.90;;;;;;5030990;28;20504;-52
2023/01/08 03:28:50;;;;;;;2.72;2.20;;;8.10;99.90;;;;;;5031417;28;20021;-54
2023/01/08 03:31:18;;;;;;;3.67;2.45;;;8.00;99.90;;;;;;5030814;28;20083;-51
2023/01/08 03:33:45;;;;;;;3.25;2.65;;;8.00;99.90;;;;;;5031199;28;20017;-54
2023/01/08 03:36:13;;;;;;;4.28;2.22;;;8.00;99.90;;;;;;5030935;28;20018;-54
2023/01/08 03:38:46;;;;;;;2.47;1.98;;;7.90;99.90;;;;;;5028068;28;20482;-53
2023/01/08 03:41:17;;;;;;;2.88;2.55;;;7.90;99.90;;;;;;5030785;28;20069;-55
2023/01/08 03:43:43;;;;;;;3.05;2.75;;;7.90;99.90;;;;;;5031091;28;20130;-53
2023/01/08 03:46:17;;;;;;;3.15;2.53;;;7.90;99.90;;;;;;5030667;28;20105;-52
2023/01/08 03:48:43;;;;;;;2.90;2.60;;;7.90;99.90;;;;;;5006730;28;20078;-52
2023/01/08 03:51:09;;;;;;;2.97;2.40;;;7.90;99.90;;;;;;5030942;28;20459;-51
2023/01/08 03:53:35;;;;;;;4.10;2.80;;;7.90;99.90;;;;;;5030941;28;20017;-56
2023/01/08 03:56:01;;;;;;;2.58;2.38;;;7.90;99.90;;;;;;5030281;28;20152;-52
2023/01/08 03:58:26;;;;;;;4.32;2.90;;;7.90;99.90;;;;;;5030793;28;20022;-52
2023/01/08 04:00:52;;;;;;;3.55;2.40;;;8.00;99.90;;;;;;5030631;28;20018;-55
2023/01/08 04:03:18;;;;;;;2.95;2.47;;;8.00;99.90;;;;;;5030584;28;20450;-54
2023/01/08 04:05:43;;;;;;;3.72;2.33;;;8.00;99.90;;;;;;5030160;28;20033;-55
2023/01/08 04:08:09;;;;;;;4.47;2.45;;;8.00;99.90;;;;;;5013214;28;20021;-52
2023/01/08 04:10:34;;;;;;;5.53;2.80;;;8.10;99.90;;;;;;5030456;28;20026;-54
2023/01/08 04:13:00;;;;;;;2.85;2.47;;;8.10;99.90;;;;;;5030443;28;20025;-54
2023/01/08 04:15:26;;;;;;;3.50;2.72;;;8.10;99.90;;;;;;5029953;28;20092;-54
2023/01/08 04:17:52;;;;;;;2.20;2.00;;;8.20;99.90;;;;;;5029353;28;20029;-52
2023/01/08 04:20:18;;;;;;;2.28;1.83;;;8.10;99.90;;;;;;5030292;28;20408;-54
2023/01/08 04:22:44;;;;;;;3.00;2.70;;;8.20;99.90;;;;;;5025942;28;20096;-53
2023/01/08 04:25:09;;;;;;;2.40;2.13;;;8.20;99.90;;;;;;5025908;28;20166;-52
2023/01/08 04:27:35;;;;;;;2.88;2.42;;;8.20;99.90;;;;;;5026660;28;20026;-52
2023/01/08 04:30:01;;;;;;;2.97;2.17;;;8.20;99.90;;;;;;5018253;28;20053;-51
2023/01/08 04:32:26;;;;;;;2.30;2.00;;;8.20;99.90;;;;;;5012226;28;20031;-53
2023/01/08 04:34:52;;;;;;;5.88;2.88;;;8.20;99.90;;;;;;5029871;28;20032;-55
2023/01/08 04:37:17;;;;;;;3.22;2.70;;;8.20;99.90;;;;;;5029820;28;20014;-53
2023/01/08 04:39:43;;;;;;;2.60;2.00;;;8.20;99.90;;;;;;5029936;28;20064;-52
2023/01/08 04:42:08;;;;;;;2.90;2.20;;;8.20;99.90;;;;;;5029769;28;20026;-56
2023/01/08 04:44:34;;;;;;;3.10;2.45;;;8.20;99.90;;;;;;5021417;28;20168;-55
2023/01/08 04:47:00;;;;;;;2.50;2.30;;;8.30;99.90;;;;;;5030104;28;20037;-54
2023/01/08 04:49:25;;;;;;;2.90;2.47;;;8.30;99.90;;;;;;5029657;28;20076;-53
2023/01/08 04:51:51;;;;;;;2.97;2.60;;;8.30;99.90;;;;;;5029828;28;20422;-56
2023/01/08 04:54:16;;;;;;;3.97;2.42;;;8.30;99.90;;;;;;5029551;28;20530;-51
2023/01/08 04:56:42;;;;;;;2.97;2.35;;;8.30;99.90;;;;;;5029499;28;20029;-53
2023/01/08 04:59:07;;;;;;;3.90;2.38;;;8.30;99.90;;;;;;5029566;28;20025;-55
2023/01/08 05:01:33;;;;;;;2.67;2.40;;;8.30;99.90;;;;;;5029290;28;20401;-54
2023/01/08 05:04:03;;;;;;;3.72;2.67;;;8.30;99.90;;;;;;5029264;28;20029;-53
2023/01/08 05:06:30;;;;;;;3.17;2.50;;;8.30;99.90;;;;;;5028756;28;20029;-52
2023/01/08 05:08:56;;;;;;;2.45;2.17;;;8.30;99.90;;;;;;5011190;28;20573;-55
2023/01/08 05:11:22;;;;;;;2.80;2.03;;;8.30;99.90;;;;;;5026867;28;20489;-53
2023/01/08 05:13:49;;;;;;;2.50;2.30;;;8.30;99.90;;;;;;5029381;28;20022;-54
2023/01/08 05:16:15;;;;;;;3.40;2.60;;;8.30;99.90;;;;;;5025274;28;20545;-53
2023/01/08 05:18:40;;;;;;;3.70;2.97;;;8.30;99.90;;;;;;5029449;28;20209;-53
2023/01/08 05:21:06;;;;;;;3.50;2.10;;;8.30;99.90;;;;;;5029517;28;20409;-52
2023/01/08 05:23:32;;;;;;;3.85;3.00;;;8.20;99.90;;;;;;5029151;28;20512;-52
2023/01/08 05:25:58;;;;;;;3.35;2.88;;;8.20;99.90;;;;;;5009493;28;20533;-55
2023/01/08 05:28:25;;;;;;;3.80;2.50;;;8.20;99.90;;;;;;5026737;28;20021;-55
2023/01/08 05:30:50;;;;;;;2.60;2.13;;;8.20;99.90;;;;;;5028980;28;20539;-55
2023/01/08 05:33:16;;;;;;;3.08;2.17;;;8.20;99.90;;;;;;5029358;28;20017;-55
2023/01/08 05:35:42;;;;;;;2.58;2.17;;;8.20;99.90;;;;;;5028935;28;20013;-52
2023/01/08 05:38:08;;;;;;;7.28;3.13;;;8.10;99.90;;;;;;5020482;28;20106;-52
2023/01/08 05:40:33;;;;;;;3.10;2.25;;;8.20;99.90;;;;;;5022614;28;20132;-53
2023/01/08 05:43:00;;;;;;;2.60;2.40;;;8.10;99.90;;;;;;5029198;28;20052;-52
2023/01/08 05:45:25;;;;;;;2.38;2.17;;;8.10;99.90;;;;;;5009586;28;20022;-52
2023/01/08 05:47:51;;;;;;;4.45;3.00;;;8.10;99.90;;;;;;5029100;28;20079;-54
2023/01/08 05:50:16;;;;;;;3.92;2.17;;;8.10;99.90;;;;;;5028948;28;20018;-55
2023/01/08 05:52:42;;;;;;;3.00;2.65;;;8.10;99.90;;;;;;5028743;28;20026;-51
2023/01/08 05:55:08;;;;;;;3.40;2.03;;;8.10;99.90;;;;;;5028686;28;20017;-53
2023/01/08 05:57:34;;;;;;;3.10;2.55;;;8.10;99.90;;;;;;5028838;28;20017;-53
2023/01/08 05:59:59;;;;;;;3.75;2.47;;;8.10;99.90;;;;;;5028816;28;20028;-52
2023/01/08 06:02:25;;;;;;;4.35;2.80;;;8.10;99.90;;;;;;5029111;28;20079;-55
2023/01/08 06:04:50;;;;;;;3.00;2.60;;;8.10;99.90;;;;;;5028904;28;20037;-53
2023/01/08 06:07:16;;;;;;;3.95;2.67;;;8.10;99.90;;;;;;5028915;28;20021;-53
2023/01/08 06:09:41;;;;;;;2.58;2.25;;;8.10;99.90;;;;;;5028643;28;20029;-53
2023/01/08 06:12:07;;;;;;;3.13;2.55;;;8.10;99.90;;;;;;5013271;28;20030;-54
2023/01/08 06:14:32;;;;;;;4.95;2.58;;;8.10;99.90;;;;;;5028674;28;20027;-52
2023/01/08 06:16:58;;;;;;;4.75;2.72;;;8.10;99.90;;;;;;5028350;28;20029;-53
2023/01/08 06:19:24;;;;;;;3.15;2.72;;;8.10;99.90;;;;;;5028702;28;20049;-54
2023/01/08 06:21:50;;;;;;;3.72;2.17;;;8.10;99.90;;;;;;5028675;28;20056;-55
2023/01/08 06:24:15;;;;;;;3.47;2.20;;;8.10;99.90;;;;;;5028272;28;20030;-52
2023/01/08 06:26:41;;;;;;;2.55;2.35;;;8.10;99.90;;;;;;5028442;28;20033;-52
2023/01/08 06:29:07;;;;;;;2.70;2.30;;;8.10;99.90;;;;;;5028589;28;20140;-52
2023/01/08 06:31:32;;;;;;;4.05;2.50;;;8.10;99.90;;;;;;5028455;28;20030;-52
2023/01/08 06:33:58;;;;;;;2.97;2.67;;;8.10;99.90;;;;;;5028494;28;20018;-54
2023/01/08 06:36:23;;;;;;;4.80;3.08;;;8.10;99.90;;;;;;5028372;28;20025;-52
2023/01/08 06:38:49;;;;;;;2.80;2.60;;;8.10;99.90;;;;;;5028508;28;20018;-53
2023/01/08 06:41:14;;;;;;;2.58;2.33;;;8.10;99.90;;;;;;5027822;28;20055;-53
2023/01/08 06:43:40;;;;;;;6.38;2.58;;;8.10;99.90;;;;;;5021318;28;20059;-53
2023/01/08 06:46:07;;;;;;;2.75;2.13;;;8.10;99.90;;;;;;5027843;28;20572;-55
2023/01/08 06:48:33;;;;;;;3.03;2.35;;;8.10;99.90;;;;;;5028458;28;20417;-52
2023/01/08 06:51:00;;;;;;;2.70;2.50;;;8.10;99.90;;;;;;5027887;28;20029;-52
2023/01/08 06:53:25;;;;;;;4.28;2.50;;;8.10;99.90;;;;;;5012599;28;20385;-52
2023/01/08 06:55:55;;;;;;;2.72;2.53;;;8.10;99.90;;;;;;5031619;28;20018;-53
2023/01/08 06:58:22;;;;;;;2.00;1.83;;;8.00;99.90;;;;;;5029779;28;20010;-52
2023/01/08 07:00:47;;;;;;;3.28;2.50;;;8.00;99.90;;;;;;5031456;28;20025;-53
2023/01/08 07:03:13;;;;;;;2.42;2.22;;;8.10;99.90;;;;;;5031516;28;20029;-52
2023/01/08 07:05:39;;;;;;;2.92;2.22;;;8.10;99.90;;;;;;5031720;28;20075;-52
2023/01/08 07:08:04;;;;;;;2.70;2.47;;;8.10;99.90;;;;;;5027069;28;20509;-53
2023/01/08 07:10:30;;;;;;;3.05;2.03;;;8.00;99.90;;;;;;5029225;28;20064;-52
2023/01/08 07:12:56;;;;;;;2.60;2.17;;;8.00;99.90;;;;;;5031482;28;20477;-52
2023/01/08 07:15:22;;;;;;;2.33;2.00;;;8.00;99.90;;;;;;5030551;28;20036;-52
2023/01/08 07:17:47;;;;;;;2.83;2.33;;;8.00;99.90;;;;;;5030816;28;20022;-54
2023/01/08 07:20:13;;;;;;;3.17;2.60;;;8.00;99.90;;;;;;5031544;28;20049;-52
2023/01/08 07:22:39;;;;;;;5.05;2.88;;;8.10;99.90;;;;;;5029604;28;20637;-51
2023/01/08 07:25:06;;;;;;;2.70;2.38;;;8.00;99.90;;;;;;5025944;28;20109;-52
2023/01/08 07:27:31;;;;;;;4.57;2.35;;;8.00;99.90;;;;;;5031516;28;20026;-52
2023/01/08 07:29:57;;;;;;;2.47;2.28;;;8.00;99.90;;;;;;5030905;28;20025;-52
2023/01/08 07:32:22;;;;;;;2.65;2.45;;;8.00;99.90;;;;;;5031266;28;20477;-52
2023/01/08 07:34:48;;;;;;;2.40;2.20;;;8.00;99.90;;;;;;5030883;28;20052;-52
2023/01/08 07:37:13;;;;;;;3.72;2.50;;;8.00;99.90;;;;;;5031014;28;20021;-52
2023/01/08 07:39:39;;;;;;;2.33;2.13;;;8.00;99.90;;;;;;5031046;28;20101;-53
2023/01/08 07:42:05;;;;;;;2.72;2.40;;;8.00;99.90;;;;;;5030050;28;20029;-52
2023/01/08 07:44:30;;;;;;;2.65;2.03;;;8.00;99.90;;;;;;5030865;28;20038;-52
2023/01/08 07:46:56;;;;;;;3.75;2.22;;;8.00;99.90;;;;;;5031342;28;20029;-53
2023/01/08 07:49:21;;;;;;;4.07;2.25;;;8.00;99.90;;;;;;5031033;28;20065;-51
2023/01/08 07:51:50;;;;;;;3.20;2.58;;;8.00;99.90;;;;;;5030779;28;20123;-54
2023/01/08 07:54:15;;;;;;;2.38;2.17;;;8.00;99.90;;;;;;5031062;28;20032;-51
2023/01/08 07:56:41;;;;;;;3.05;2.28;;;8.00;99.90;;;;;;5030950;28;20048;-55
2023/01/08 07:59:06;;;;;;;2.40;2.20;;;8.00;99.90;;;;;;5030825;28;20033;-56
2023/01/08 08:01:32;;;;;;;3.90;2.35;;;8.00;99.90;;;;;;5030639;28;20112;-55
2023/01/08 08:03:57;;;;;;;3.90;2.60;;;8.00;99.90;;;;;;5030516;28;20036;-55
2023/01/08 08:06:23;;;;;;;3.38;2.80;;;8.00;99.90;;;;;;5030036;28;20120;-54
2023/01/08 08:08:48;;;;;;;2.40;2.08;;;8.00;99.90;;;;;;5030681;28;20048;-51
2023/01/08 08:11:14;;;;;;;3.80;2.50;;;8.00;99.90;;;;;;5030395;28;20080;-51
2023/01/08 08:13:43;;;;;;;2.45;2.22;;;8.00;99.90;;;;;;5030475;28;20059;-56
2023/01/08 08:16:09;;;;;;;3.70;2.25;;;8.10;99.90;;;;;;5010868;28;20037;-52
2023/01/08 08:18:35;;;;;;;3.50;2.65;;;8.10;99.90;;;;;;5029474;28;20025;-55
2023/01/08 08:21:00;;;;;;;3.50;2.90;;;8.10;99.90;;;;;;5030200;28;20620;-54
2023/01/08 08:23:26;;;;;;;2.40;1.90;;;8.10;99.90;;;;;;5029673;28;20053;-55
2023/01/08 08:25:52;;;;;;;3.38;2.15;;;8.10;99.90;;;;;;5030169;28;20469;-52
2023/01/08 08:28:18;;;;;;;1.98;1.83;;;8.10;99.90;;;;;;5026365;28;20033;-55
2023/01/08 08:30:43;;;;;;;2.95;2.10;;;8.20;99.90;;;;;;5012788;28;20037;-53
2023/01/08 08:33:09;;;;;;;2.20;1.88;;;8.20;99.90;;;;;;5030341;28;20021;-52
2023/01/08 08:35:35;;;;;;;3.65;2.25;;;8.20;99.90;;;;;;5030116;28;20036;-52
2023/01/08 08:38:01;;;;;;;2.60;2.30;;;8.20;99.90;;;;;;5026455;28;20053;-54
2023/01/08 08:40:27;;;;;;;2.75;2.25;;;8.10;99.90;;;;;;5027368;28;20504;-51
2023/01/08 08:42:57;;;;;;;3.25;2.20;;;8.10;99.90;;;;;;5026623;28;20040;-51
2023/01/08 08:45:23;;;;;;;3.17;2.67;;;8.10;99.90;;;;;;5028808;28;20030;-52
2023/01/08 08:47:49;;;;;;;2.85;2.42;;;8.10;99.90;;;;;;5029140;28;20125;-51
2023/01/08 08:50:14;;;;;;;4.30;2.85;;;8.10;99.90;;;;;;5028882;28;20029;-55
2023/01/08 08:52:40;;;;;;;2.63;2.42;;;8.10;99.90;;;;;;5028936;28;20041;-54
2023/01/08 08:55:06;;;;;;;2.42;2.22;;;8.10;99.90;;;;;;5028463;28;20584;-53
2023/01/08 08:57:31;;;;;;;5.43;2.67;;;8.10;99.90;;;;;;5028406;28;20112;-51
2023/01/08 08:59:57;;;;;;;3.38;2.58;;;8.10;99.90;;;;;;5028481;28;20508;-51
2023/01/08 09:02:23;;;;;;;2.67;2.45;;;8.10;99.90;;;;;;5028994;28;20083;-53
2023/01/08 09:04:48;;;;;;;2.30;2.10;;;8.10;99.90;;;;;;5025462;28;20037;-52
2023/01/08 09:07:14;;;;;;;3.17;2.65;;;8.20;99.90;;;;;;5029233;28;20037;-55
2023/01/08 09:09:39;;;;;;;5.88;2.58;;;8.20;99.90;;;;;;5028928;28;20025;-53
2023/01/08 09:12:06;;;;;;;3.13;2.30;;;8.20;99.90;;;;;;5029726;28;20057;-53
2023/01/08 09:14:32;;;;;;;5.32;2.40;;;8.20;99.90;;;;;;5026871;28;20042;-54
2023/01/08 09:16:57;;;;;;;3.33;2.47;;;8.20;99.90;;;;;;5010583;28;20033;-52
2023/01/08 09:19:23;;;;;;;4.72;3.30;;;8.20;99.90;;;;;;5022249;28;20037;-55
2023/01/08 09:21:49;;;;;;;2.65;2.45;;;8.20;99.90;;;;;;5066284;23;20051;-56
2023/01/08 09:24:15;;;;;;;4.75;2.95;;;8.20;99.90;;;;;;5041318;28;20472;-56
2023/01/08 09:26:41;;;;;;;2.50;2.30;;;8.20;99.90;;;;;;5048233;28;20029;-56
2023/01/08 09:29:07;;;;;;;3.53;2.60;;;8.20;99.90;;;;;;5048925;28;20027;-55
2023/01/08 09:31:33;;;;;;;2.60;2.40;;;8.20;99.90;;;;;;5042471;28;20033;-57
2023/01/08 09:33:59;;;;;;;3.65;2.20;;;8.20;99.90;;;;;;5043838;28;20702;-55
2023/01/08 09:36:24;;;;;;;4.03;3.17;;;8.20;99.90;;;;;;5046642;28;20138;-55
2023/01/08 09:38:50;;;;;;;5.47;3.58;;;8.20;99.90;;;;;;5043647;28;20063;-54
2023/01/08 09:41:18;;;;;;;3.70;2.58;;;8.20;99.90;;;;;;5045220;28;20029;-57
2023/01/08 09:43:47;;;;;;;5.03;3.00;;;8.20;99.90;;;;;;5048326;28;20507;-57
2023/01/08 09:46:14;;;;;;;3.28;2.30;;;8.20;99.90;;;;;;5044211;28;20028;-58
2023/01/08 09:48:40;;;;;;;2.92;2.22;;;8.20;99.90;;;;;;5048979;28;20025;-57
2023/01/08 09:51:11;;;;;;;8.38;5.25;;;8.20;99.90;;;;;;5048492;28;20040;-54
2023/01/08 09:53:37;;;;;;;6.63;3.38;;;8.20;99.90;;;;;;5041085;28;20024;-54
2023/01/08 09:56:09;;;;;;;2.75;2.38;;;8.20;99.90;;;;;;5048625;28;20028;-56
2023/01/08 09:58:44;;;;;;;4.22;2.65;;;8.20;99.90;;;;;;5045876;28;20504;-57
2023/01/08 10:01:16;;;;;;;4.38;3.22;;;8.20;99.90;;;;;;5047825;28;20021;-54
2023/01/08 10:03:49;;;;;;;4.20;3.20;;;8.20;99.90;;;;;;5041306;28;20029;-56
2023/01/08 10:06:16;;;;;;;5.13;2.80;;;8.20;99.90;;;;;;5046541;28;20028;-55
2023/01/08 10:08:42;;;;;;;3.80;2.78;;;8.30;99.90;;;;;;5026181;28;20029;-54
2023/01/08 10:11:09;;;;;;;3.67;2.47;;;8.30;99.90;;;;;;5046304;28;20492;-55
2023/01/08 10:13:38;;;;;;;4.25;2.42;;;8.40;99.90;;;;;;5044985;28;20021;-55
2023/01/08 10:16:10;;;;;;;2.85;2.47;;;8.40;99.90;;;;;;5044399;28;20047;-58
2023/01/08 10:18:36;;;;;;;3.67;2.60;;;8.50;99.90;;;;;;5044015;28;20059;-55
2023/01/08 10:21:02;;;;;;;3.58;2.20;;;8.50;99.90;;;;;;5044269;28;20394;-57
2023/01/08 10:23:28;;;;;;;3.58;2.70;;;8.60;99.90;;;;;;5046653;28;20083;-57
2023/01/08 10:25:57;;;;;;;4.07;2.30;;;8.50;99.90;;;;;;5025647;28;20028;-54
2023/01/08 10:28:26;;;;;;;4.70;2.75;;;8.60;99.90;;;;;;5049080;28;20032;-55
2023/01/08 10:30:53;;;;;;;3.78;2.28;;;8.60;99.90;;;;;;5048513;28;20632;-55
2023/01/08 10:33:44;;;;;;;3.33;2.30;;;8.70;99.90;;;;;;5049571;28;20701;-57
2023/01/08 10:36:15;;;;;;;3.30;2.00;;;8.70;99.90;;;;;;5037534;28;20071;-55
2023/01/08 10:38:49;;;;;;;4.22;2.05;;;8.70;99.90;;;;;;5040490;28;20020;-55
2023/01/08 10:41:16;;;;;;;2.80;2.22;;;8.80;99.90;;;;;;5047935;28;20501;-57
2023/01/08 10:43:45;;;;;;;2.33;1.80;;;8.70;99.90;;;;;;5051539;28;20029;-57
2023/01/08 10:46:22;;;;;;;2.83;2.13;;;8.70;99.90;;;;;;5046962;28;20099;-56
2023/01/08 10:48:55;;;;;;;3.38;2.10;;;8.80;99.90;;;;;;5047159;28;20090;-55
2023/01/08 10:51:23;;;;;;;3.72;2.38;;;8.80;99.90;;;;;;5032776;28;20036;-57
2023/01/08 10:53:50;;;;;;;2.38;1.90;;;8.90;99.90;;;;;;5033552;28;20105;-55
2023/01/08 10:56:27;;;;;;;2.15;1.80;;;8.90;99.90;;;;;;5050326;28;20047;-56
2023/01/08 10:58:54;;;;;;;2.50;1.52;;;8.90;99.90;;;;;;5045664;28;20021;-54
2023/01/08 11:01:28;;;;;;;1.92;1.50;;;8.90;99.90;;;;;;5032750;28;20037;-57
2023/01/08 11:04:02;;;;;;;3.30;1.92;;;8.90;99.90;;;;;;5047319;28;20036;-57
2023/01/08 11:06:36;;;;;;;2.47;1.75;;;8.90;99.90;;;;;;5050021;28;20053;-55
2023/01/08 11:09:12;;;;;;;4.60;1.85;;;8.90;99.90;;;;;;5046018;28;20028;-53
2023/01/08 11:11:38;;;;;;;1.92;1.40;;;9.00;99.90;;;;;;5049418;28;20072;-57
2023/01/08 11:14:14;;;;;;;1.65;1.40;;;8.90;99.90;;;;;;5050598;28;20052;-56
2023/01/08 11:16:41;;;;;;;2.97;1.33;;;8.90;99.90;;;;;;5047574;28;20020;-57
2023/01/08 11:19:16;;;;;;;2.25;1.40;;;8.90;99.90;;;;;;5051434;28;20036;-54
2023/01/08 11:21:57;;;;;;;2.22;1.42;;;8.90;99.90;;;;;;5041099;28;20457;-57
2023/01/08 11:24:35;;;;;;;1.90;1.50;;;8.90;99.90;;;;;;5050023;28;20033;-54
2023/01/08 11:27:06;;;;;;;3.25;1.25;;;8.90;99.90;;;;;;5048995;28;20031;-57
2023/01/08 11:29:54;;;;;;;3.53;1.30;;;9.00;99.90;;;;;;5051616;28;20021;-56
2023/01/08 11:32:46;;;;;;;2.00;1.38;;;8.90;99.90;;;;;;5042278;28;20381;-57
2023/01/08 11:35:27;;;;;;;1.50;1.30;;;9.00;99.90;;;;;;5043180;28;20021;-56
2023/01/08 11:37:58;;;;;;;2.80;1.55;;;9.00;99.90;;;;;;5050787;28;20027;-55
2023/01/08 11:40:42;;;;;;;1.35;1.20;;;9.00;99.90;;;;;;5049368;28;20021;-56
2023/01/08 11:43:29;;;;;;;1.67;1.50;;;9.00;99.90;;;;;;5050202;28;20028;-56
2023/01/08 11:45:55;;;;;;;2.00;1.63;;;9.20;99.90;;;;;;5040858;28;20509;-58
2023/01/08 11:48:23;;;;;;;2.83;1.70;;;9.30;99.90;;;;;;5049322;28;20049;-57
2023/01/08 11:50:51;;;;;;;3.13;1.70;;;9.40;99.90;;;;;;5046864;28;20017;-55
2023/01/08 11:53:29;;;;;;;2.28;1.65;;;9.40;99.90;;;;;;5042482;28;20071;-56
2023/01/08 11:56:10;;;;;;;2.05;1.85;;;9.40;99.90;;;;;;5049467;28;20531;-54
2023/01/08 11:59:04;;;;;;;3.92;1.90;;;9.50;99.90;;;;;;5046801;28;20017;-56
2023/01/08 12:01:57;;;;;;;2.70;1.85;;;9.50;99.90;;;;;;5050221;28;20033;-56
2023/01/08 12:04:48;;;;;;;3.30;2.00;;;9.50;99.90;;;;;;5045943;28;20028;-55
2023/01/08 12:07:30;;;;;;;2.67;1.90;;;9.50;99.90;;;;;;5035623;28;20029;-56
2023/01/08 12:10:07;;;;;;;3.55;1.98;;;9.50;99.90;;;;;;5050792;28;20698;-59
2023/01/08 12:12:50;;;;;;;1.85;1.63;;;9.50;99.90;;;;;;5040169;28;20029;-57
2023/01/08 12:15:38;;;;;;;3.00;1.63;;;9.50;99.90;;;;;;5046425;28;20021;-56
2023/01/08 12:18:42;;;;;;;1.80;1.25;;;9.50;99.90;;;;;;5040276;28;20060;-58
2023/01/08 12:21:17;;;;;;;1.88;1.45;;;9.50;99.90;;;;;;5020844;28;20497;-57
2023/01/08 12:24:35;;;;;;;2.00;1.45;;;9.50;99.90;;;;;;5040370;28;20036;-55
2023/01/08 12:27:18;;;;;;;2.28;1.33;;;9.50;99.90;;;;;;4939491;29;20042;-55
2023/01/08 12:30:13;;;;;;;1.75;1.08;;;9.50;99.90;;;;;;5031676;28;20059;-58
2023/01/08 12:32:40;;;;;;;2.47;1.48;;;9.50;99.90;;;;;;5042003;28;20558;-54
2023/01/08 12:35:18;;;;;;;2.22;1.38;;;9.50;99.90;;;;;;5045055;28;20017;-56
2023/01/08 12:38:00;;;;;;;3.00;1.40;;;9.50;99.90;;;;;;5048206;28;20104;-56
2023/01/08 12:40:40;;;;;;;1.33;0.93;;;9.50;99.90;;;;;;5029463;28;20108;-54
2023/01/08 12:43:16;;;;;;;1.10;0.90;;;9.40;99.90;;;;;;5045366;28;20493;-54
2023/01/08 12:45:43;;;;;;;;;;;9.40;99.90;;;;;;5040296;28;20021;-57
2023/01/08 12:48:19;;;;;;;3.90;1.08;;;9.40;99.90;;;;;;5049874;28;20372;-56
2023/01/08 12:51:10;;;;;;;1.25;0.93;;;9.40;99.90;;;;;;5038598;28;20057;-56
2023/01/08 12:54:00;;;;;;;3.35;1.40;;;9.50;99.90;;;;;;5049363;28;20082;-57
2023/01/08 12:56:44;;;;;;;4.88;1.33;;;9.50;99.90;;;;;;5049051;28;20025;-56
2023/01/08 12:59:37;;;;;;;1.00;0.80;;;9.50;99.90;;;;;;5047986;28;20017;-56
2023/01/08 13:02:22;;;;;;;1.52;0.82;;;9.50;99.90;;;;;;5019853;28;20029;-56
2023/01/08 13:04:47;;;;;;;2.38;1.40;;;9.40;99.90;;;;;;5044907;28;20021;-57
2023/01/08 13:07:29;;;;;;;6.13;1.63;;;9.40;99.90;;;;;;5048731;28;20036;-54
2023/01/08 13:10:18;;;;;;;1.17;1.05;;;9.40;99.90;;;;;;5044651;28;20028;-57
2023/01/08 13:12:49;;;;;;;1.23;0.70;;;9.40;99.90;;;;;;5046711;28;20029;-56